TimeCDT,TemperatureF,Dew PointF,Humidity,Sea Level PressureIn,VisibilityMPH,Wind Direction,Wind SpeedMPH,Gust SpeedMPH,PrecipitationIn,Events,Conditions,WindDirDegrees,DateUTC
12:15 AM,66.2,55.4,68,30.00,10.0,South,6.9,-,N/A,,Clear,180,2012-10-04 05:15:00
12:35 AM,68.0,55.4,64,30.00,10.0,South,8.1,-,N/A,,Clear,180,2012-10-04 05:35:00
12:55 AM,68.0,55.4,64,30.00,10.0,South,9.2,-,N/A,,Clear,170,2012-10-04 05:55:00
1:15 AM,68.0,55.4,64,30.00,10.0,SSE,8.1,-,N/A,,Clear,160,2012-10-04 06:15:00
1:35 AM,66.2,55.4,68,30.01,10.0,South,9.2,-,N/A,,Clear,170,2012-10-04 06:35:00
1:55 AM,64.4,55.4,73,30.00,10.0,South,11.5,16.1,N/A,,Clear,170,2012-10-04 06:55:00
2:15 AM,66.2,57.2,73,30.00,10.0,South,10.4,-,N/A,,Clear,170,2012-10-04 07:15:00
2:35 AM,66.2,57.2,73,30.01,10.0,South,6.9,-,N/A,,Clear,170,2012-10-04 07:35:00
2:55 AM,64.4,57.2,77,30.02,10.0,South,6.9,-,N/A,,Clear,170,2012-10-04 07:55:00
3:15 AM,64.4,57.2,77,30.02,10.0,South,6.9,-,N/A,,Clear,170,2012-10-04 08:15:00
3:35 AM,64.4,57.2,77,30.02,10.0,South,4.6,-,N/A,,Clear,180,2012-10-04 08:35:00
3:55 AM,64.4,57.2,77,30.02,10.0,South,4.6,-,N/A,,Clear,170,2012-10-04 08:55:00
4:15 AM,64.4,57.2,77,30.03,10.0,South,4.6,-,N/A,,Clear,170,2012-10-04 09:15:00
4:35 AM,64.4,57.2,77,30.03,10.0,South,5.8,-,N/A,,Clear,170,2012-10-04 09:35:00
4:55 AM,64.4,57.2,77,30.03,10.0,South,5.8,-,N/A,,Clear,170,2012-10-04 09:55:00
5:15 AM,62.6,57.2,82,30.04,10.0,South,4.6,-,N/A,,Clear,170,2012-10-04 10:15:00
5:35 AM,62.6,57.2,82,30.05,10.0,South,5.8,-,N/A,,Clear,170,2012-10-04 10:35:00
5:55 AM,62.6,59.0,88,30.05,10.0,SSE,5.8,-,N/A,,Clear,160,2012-10-04 10:55:00
6:15 AM,62.6,57.2,82,30.07,10.0,SSE,3.5,-,N/A,,Clear,160,2012-10-04 11:15:00
6:35 AM,60.8,57.2,88,30.09,10.0,ESE,3.5,-,N/A,,Clear,110,2012-10-04 11:35:00
6:55 AM,60.8,59.0,94,30.09,10.0,SE,3.5,-,N/A,,Clear,140,2012-10-04 11:55:00
7:15 AM,60.8,59.0,94,30.10,10.0,SE,5.8,-,N/A,,Clear,130,2012-10-04 12:15:00
7:35 AM,62.6,59.0,88,30.10,10.0,SE,5.8,-,N/A,,Clear,140,2012-10-04 12:35:00
7:55 AM,62.6,59.0,88,30.10,10.0,SE,6.9,-,N/A,,Clear,140,2012-10-04 12:55:00
8:15 AM,64.4,59.0,83,30.11,10.0,SE,6.9,-,N/A,,Clear,140,2012-10-04 13:15:00
8:35 AM,66.2,59.0,78,30.13,10.0,Calm,Calm,-,N/A,,Clear,0,2012-10-04 13:35:00
8:55 AM,68.0,60.8,78,30.14,10.0,NNW,3.5,-,N/A,,Clear,340,2012-10-04 13:55:00
9:15 AM,68.0,60.8,78,30.14,10.0,Calm,Calm,-,N/A,,Clear,0,2012-10-04 14:15:00
9:35 AM,69.8,60.8,73,30.15,10.0,WSW,3.5,-,N/A,,Clear,250,2012-10-04 14:35:00
9:55 AM,69.8,60.8,73,30.15,10.0,SSW,4.6,-,N/A,,Mostly Cloudy,210,2012-10-04 14:55:00
10:15 AM,71.6,62.6,73,30.15,10.0,SW,5.8,-,N/A,,Scattered Clouds,220,2012-10-04 15:15:00
10:35 AM,71.6,62.6,73,30.15,10.0,South,3.5,-,N/A,,Scattered Clouds,190,2012-10-04 15:35:00
10:55 AM,71.6,62.6,73,30.15,10.0,SW,5.8,-,N/A,,Scattered Clouds,230,2012-10-04 15:55:00
11:15 AM,73.4,64.4,73,30.15,10.0,SSW,3.5,-,N/A,,Clear,200,2012-10-04 16:15:00
11:35 AM,75.2,64.4,69,30.15,10.0,SW,3.5,-,N/A,,Scattered Clouds,220,2012-10-04 16:35:00
11:55 AM,73.4,64.4,73,30.15,10.0,Calm,Calm,-,N/A,,Mostly Cloudy,0,2012-10-04 16:55:00
12:15 PM,73.4,64.4,73,30.16,10.0,West,6.9,-,N/A,,Overcast,270,2012-10-04 17:15:00
12:35 PM,73.4,64.4,73,30.16,10.0,WNW,6.9,-,N/A,,Overcast,290,2012-10-04 17:35:00
12:55 PM,71.6,60.8,69,30.16,10.0,North,-9999.0,-,N/A,,Overcast,0,2012-10-04 17:55:00
1:35 PM,69.8,59.0,68,30.15,10.0,North,-9999.0,-,N/A,,Overcast,0,2012-10-04 18:35:00
1:55 PM,69.8,59.0,68,30.15,10.0,North,-9999.0,-,N/A,,Overcast,0,2012-10-04 18:55:00
2:15 PM,69.8,59.0,68,30.14,10.0,North,-9999.0,-,N/A,,Overcast,0,2012-10-04 19:15:00
2:35 PM,69.8,59.0,68,30.14,10.0,North,-9999.0,-,N/A,,Overcast,0,2012-10-04 19:35:00
2:55 PM,69.8,59.0,68,30.13,10.0,North,-9999.0,-,N/A,,Overcast,0,2012-10-04 19:55:00
3:15 PM,69.8,59.0,68,30.13,10.0,North,-9999.0,-,N/A,,Overcast,0,2012-10-04 20:15:00
3:35 PM,69.8,59.0,68,30.13,10.0,North,-9999.0,-,N/A,,Overcast,0,2012-10-04 20:35:00
3:55 PM,69.8,59.0,68,30.14,10.0,NW,6.9,-,N/A,,Overcast,320,2012-10-04 20:55:00
4:15 PM,69.8,57.2,64,30.14,10.0,NW,6.9,-,N/A,,Overcast,320,2012-10-04 21:15:00
4:35 PM,69.8,57.2,64,30.14,10.0,North,-9999.0,-,N/A,,Overcast,0,2012-10-04 21:35:00
4:55 PM,69.8,55.4,60,30.14,10.0,NW,8.1,-,N/A,,Overcast,320,2012-10-04 21:55:00
5:15 PM,69.8,55.4,60,30.14,10.0,North,-9999.0,-,N/A,,Overcast,0,2012-10-04 22:15:00
5:35 PM,69.8,55.4,60,30.13,10.0,North,-9999.0,-,N/A,,Overcast,0,2012-10-04 22:35:00
5:55 PM,69.8,55.4,60,30.13,10.0,North,-9999.0,-,N/A,,Overcast,0,2012-10-04 22:55:00
6:15 PM,69.8,55.4,60,30.13,10.0,NNW,9.2,-,N/A,,Overcast,340,2012-10-04 23:15:00
6:35 PM,68.0,55.4,64,30.13,10.0,NNW,8.1,-,N/A,,Overcast,340,2012-10-04 23:35:00
6:55 PM,68.0,53.6,60,30.14,10.0,NNW,8.1,-,N/A,,Overcast,330,2012-10-04 23:55:00
7:15 PM,68.0,53.6,60,30.15,10.0,North,-9999.0,-,N/A,,Overcast,0,2012-10-05 00:15:00
7:35 PM,68.0,53.6,60,30.15,10.0,North,-9999.0,-,N/A,,Overcast,0,2012-10-05 00:35:00
7:55 PM,66.2,53.6,64,30.16,10.0,North,-9999.0,-,N/A,,Overcast,0,2012-10-05 00:55:00
8:15 PM,64.4,51.8,64,30.16,10.0,NNE,9.2,-,N/A,Rain,Light Rain,20,2012-10-05 01:15:00
8:35 PM,64.4,51.8,64,30.17,10.0,NNE,9.2,-,N/A,,Overcast,20,2012-10-05 01:35:00
8:55 PM,64.4,53.6,68,30.17,10.0,NNE,9.2,-,N/A,,Overcast,20,2012-10-05 01:55:00
9:15 PM,64.4,53.6,68,30.17,10.0,North,8.1,-,N/A,,Overcast,10,2012-10-05 02:15:00
9:35 PM,62.6,53.6,72,30.17,10.0,NNE,6.9,-,N/A,,Overcast,20,2012-10-05 02:35:00
9:55 PM,62.6,51.8,68,30.17,10.0,North,5.8,-,N/A,,Overcast,10,2012-10-05 02:55:00
10:15 PM,62.6,51.8,68,30.17,10.0,NNE,5.8,-,N/A,,Overcast,30,2012-10-05 03:15:00
10:35 PM,62.6,51.8,68,30.16,10.0,NNE,8.1,-,N/A,,Overcast,30,2012-10-05 03:35:00
10:55 PM,62.6,51.8,68,30.17,10.0,North,6.9,-,N/A,,Overcast,360,2012-10-05 03:55:00
11:15 PM,60.8,53.6,77,30.18,7.0,North,4.6,-,N/A,Rain,Rain,360,2012-10-05 04:15:00
11:35 PM,59.0,55.4,88,30.18,10.0,North,4.6,-,N/A,,Overcast,360,2012-10-05 04:35:00
11:55 PM,59.0,55.4,88,30.17,10.0,NNE,6.9,-,N/A,,Overcast,20,2012-10-05 04:55:00